OPLA/LHE METAR and TAF weather

Enter ICAO airport designator
Station Type Date Time Source
OPLA METAR 2022/08/12 14:25 UTC NOAA

OPLA 121425Z 32005KT 6000 NSC 34/23 Q0998 NOSIG RMK QFE971 A29.49


Station Type Date Time Source
OPLA Decoded METAR 2022/08/12 14:25 UTC NOAA

Lahore Airport, Pakistan (OPLA) 31-31N 074-24E 217M
Aug 12, 2022 - 10:25 AM EDT / 2022.08.12 1425 UTC
Wind: from the NW (320 degrees) at 6 MPH (5 KT):0
Visibility: 3 mile(s):0
Temperature: 93 F (34 C)
Heat index: 101.8 F (38.8 C):1
Dew Point: 73 F (23 C)
Relative Humidity: 52%
Pressure (altimeter): 29.47 in. Hg (0998 hPa)
ob: OPLA 121425Z 32005KT 6000 NSC 34/23 Q0998 NOSIG RMK QFE971 A29.49
cycle: 14

Station Type Date Time Source
OPLA TAF 2022/08/12 12:54 UTC NOAA

TAF TAF OPLA 120945Z 1212/1318 35008KT 4000 FU FEW040 SCT100 TX38/1310Z TN27/1300Z
FM130400 13006KT 5000 FU SCT040 SCT100

Example: see airport list